Time;durP1;ratioP1;P1;durP2;ratioP2;P2;SDS_P1;SDS_P2;PMS_P1;PMS_P2;Temp;Humidity;BMP_temperature;BMP_pressure;BME280_temperature;BME280_humidity;BME280_pressure;Samples;Min_cycle;Max_cycle;Signal;HPM_P1;HPM_P2
2022/10/01 00:00:12;;;;;;;16.27;13.07;;;;;;;18.73;100.00;100531.86;1716979;83;21581;-59
2022/10/01 00:02:39;;;;;;;13.07;11.63;;;;;;;18.71;100.00;100532.91;1717130;83;21250;-59
2022/10/01 00:05:10;;;;;;;15.60;10.73;;;;;;;18.75;100.00;100528.45;1717140;83;21009;-60
2022/10/01 00:07:41;;;;;;;16.10;12.30;;;;;;;18.59;100.00;100528.08;1717078;83;20905;-60
2022/10/01 00:10:10;;;;;;;15.38;12.70;;;;;;;18.59;100.00;100528.60;1716799;82;21499;-60
2022/10/01 00:12:38;;;;;;;12.83;10.57;;;;;;;18.64;100.00;100533.50;1717250;83;22344;-61
2022/10/01 00:15:08;;;;;;;14.67;12.37;;;;;;;18.61;100.00;100540.55;1717162;83;21254;-59
2022/10/01 00:17:36;;;;;;;14.83;13.27;;;;;;;18.55;100.00;100534.86;1717109;83;21007;-59
2022/10/01 00:20:04;;;;;;;16.53;13.03;;;;;;;18.58;100.00;100533.08;1716831;82;20960;-68
2022/10/01 00:22:32;;;;;;;14.20;12.63;;;;;;;18.54;100.00;100530.61;1716949;82;21689;-59
2022/10/01 00:25:01;;;;;;;14.67;12.90;;;;;;;18.56;100.00;100529.89;1717360;83;21016;-60
2022/10/01 00:27:28;;;;;;;15.93;12.30;;;;;;;18.58;100.00;100525.16;1717235;83;21877;-61
2022/10/01 00:29:55;;;;;;;14.07;11.70;;;;;;;18.60;100.00;100518.32;1716856;83;20913;-67
2022/10/01 00:32:23;;;;;;;14.63;12.60;;;;;;;18.62;100.00;100518.39;1716990;83;21166;-61
2022/10/01 00:34:51;;;;;;;14.37;12.30;;;;;;;18.59;100.00;100522.80;1717141;83;21003;-59
2022/10/01 00:37:21;;;;;;;14.87;12.33;;;;;;;18.56;100.00;100521.97;1717095;83;20913;-60
2022/10/01 00:39:47;;;;;;;16.67;12.37;;;;;;;18.56;100.00;100519.81;1717118;82;21215;-69
2022/10/01 00:42:21;;;;;;;15.07;12.23;;;;;;;18.54;100.00;100517.41;1716689;83;20995;-59
2022/10/01 00:44:48;;;;;;;18.73;13.03;;;;;;;18.46;100.00;100515.92;1744480;82;21533;-60
2022/10/01 00:47:30;;;;;;;16.57;11.33;;;;;;;18.36;100.00;100512.23;1747106;80;21022;-59
2022/10/01 00:50:09;;;;;;;14.70;12.17;;;;;;;18.22;100.00;100508.50;1717475;82;20947;-59
2022/10/01 00:52:39;;;;;;;14.30;10.93;;;;;;;18.20;100.00;100517.14;1747252;82;21145;-60
2022/10/01 00:55:19;;;;;;;14.77;12.33;;;;;;;18.30;100.00;100509.20;1734995;82;21038;-59
2022/10/01 00:57:45;;;;;;;14.00;12.43;;;;;;;18.27;100.00;100507.02;1730357;82;20989;-60
2022/10/01 01:00:13;;;;;;;14.70;12.20;;;;;;;18.36;100.00;100505.63;1727336;82;21486;-60
2022/10/01 01:02:40;;;;;;;13.07;11.60;;;;;;;18.39;100.00;100501.23;1732501;82;21133;-63
2022/10/01 01:05:08;;;;;;;15.13;11.97;;;;;;;18.38;100.00;100508.34;1726209;81;21137;-60
2022/10/01 01:07:35;;;;;;;12.80;11.23;;;;;;;18.45;100.00;100502.96;1723392;82;20930;-60
2022/10/01 01:10:03;;;;;;;12.13;10.93;;;;;;;18.34;100.00;100507.19;1733027;82;20976;-59
2022/10/01 01:12:53;;;;;;;13.00;11.70;;;;;;;18.32;100.00;100509.77;1726482;82;21061;-61
2022/10/01 01:15:31;;;;;;;14.07;10.93;;;;;;;18.24;100.00;100509.58;1721248;82;20989;-60
2022/10/01 01:18:19;;;;;;;18.17;11.90;;;;;;;18.30;100.00;100519.76;1726904;82;21211;-59
2022/10/01 01:21:10;;;;;;;16.40;12.63;;;;;;;18.18;100.00;100527.14;1718785;82;21616;-59
2022/10/01 01:24:15;;;;;;;14.38;12.58;;;;;;;18.16;100.00;100536.30;1723310;81;21431;-59
2022/10/01 01:27:20;;;;;;;16.23;12.60;;;;;;;18.15;100.00;100534.18;1726472;82;21610;-59
2022/10/01 01:30:09;;;;;;;15.40;13.87;;;;;;;18.11;100.00;100547.53;1730289;82;21073;-59
2022/10/01 01:33:05;;;;;;;13.67;11.63;;;;;;;18.12;100.00;100550.45;1725959;82;21280;-58
2022/10/01 01:35:40;;;;;;;15.60;13.10;;;;;;;18.02;100.00;100544.91;1716978;83;20947;-58
2022/10/01 01:38:18;;;;;;;16.47;13.33;;;;;;;17.87;100.00;100547.16;1717111;83;21007;-61
2022/10/01 01:40:44;;;;;;;17.00;14.20;;;;;;;17.74;100.00;100542.84;1716509;83;21018;-62
2022/10/01 01:43:16;;;;;;;14.13;12.73;;;;;;;17.72;100.00;100544.36;1717351;83;21552;-59
2022/10/01 01:45:43;;;;;;;15.05;13.53;;;;;;;17.68;100.00;100544.52;1717121;83;21201;-59
2022/10/01 01:48:12;;;;;;;13.90;12.50;;;;;;;17.68;100.00;100537.93;1717061;83;21031;-58
2022/10/01 01:50:46;;;;;;;15.77;13.33;;;;;;;17.62;100.00;100545.42;1716527;82;20956;-64
2022/10/01 01:53:14;;;;;;;14.90;13.40;;;;;;;17.62;100.00;100545.42;1727967;81;21046;-59
2022/10/01 01:55:42;;;;;;;15.80;13.73;;;;;;;17.60;100.00;100534.80;1728209;82;21051;-60
2022/10/01 01:58:10;;;;;;;16.33;14.10;;;;;;;17.58;100.00;100535.52;1726451;82;21269;-58
2022/10/01 02:00:38;;;;;;;16.73;12.47;;;;;;;17.45;100.00;100535.19;1712832;82;21018;-67
2022/10/01 02:03:05;;;;;;;18.37;13.10;;;;;;;17.46;100.00;100523.61;1732039;82;21122;-59
2022/10/01 02:05:42;;;;;;;15.17;11.63;;;;;;;17.40;100.00;100525.83;1731667;82;21111;-59
2022/10/01 02:08:45;;;;;;;16.17;13.47;;;;;;;17.36;100.00;100524.66;1720921;82;20901;-58
2022/10/01 02:11:30;;;;;;;15.93;13.13;;;;;;;17.31;100.00;100528.45;1727375;82;21157;-59
2022/10/01 02:14:05;;;;;;;16.17;13.87;;;;;;;17.39;100.00;100533.45;1723382;82;20892;-58
2022/10/01 02:16:44;;;;;;;16.37;13.83;;;;;;;17.36;100.00;100532.57;1714635;82;20996;-59
2022/10/01 02:19:42;;;;;;;15.00;13.40;;;;;;;17.22;100.00;100543.25;1725322;81;21052;-58
2022/10/01 02:22:19;;;;;;;18.07;15.17;;;;;;;17.15;100.00;100535.13;1729714;82;20967;-60
2022/10/01 02:24:51;;;;;;;16.90;14.00;;;;;;;17.08;100.00;100538.34;1722582;81;21217;-59
2022/10/01 02:27:35;;;;;;;21.23;14.83;;;;;;;17.23;100.00;100538.26;1723496;81;20926;-59
2022/10/01 02:30:10;;;;;;;15.50;13.87;;;;;;;17.21;100.00;100534.25;1725063;82;20995;-59
2022/10/01 02:32:36;;;;;;;17.03;15.00;;;;;;;17.28;100.00;100531.55;1723301;82;20956;-65
2022/10/01 02:35:06;;;;;;;22.37;16.50;;;;;;;17.29;100.00;100546.33;1701434;82;21031;-59
2022/10/01 02:37:33;;;;;;;20.73;14.70;;;;;;;17.36;100.00;100541.27;1729765;82;21229;-58
2022/10/01 02:40:00;;;;;;;18.23;15.80;;;;;;;17.47;100.00;100543.69;1726853;82;21051;-59
2022/10/01 02:42:27;;;;;;;19.57;14.63;;;;;;;17.47;100.00;100542.37;1718833;82;20986;-58
2022/10/01 02:44:55;;;;;;;18.90;14.67;;;;;;;17.53;100.00;100545.42;1725339;82;20963;-69
2022/10/01 02:47:27;;;;;;;21.33;14.83;;;;;;;17.56;100.00;100550.26;1728200;82;21212;-59
2022/10/01 02:49:54;;;;;;;20.15;14.18;;;;;;;17.56;100.00;100543.66;1728411;82;21143;-58
2022/10/01 02:52:34;;;;;;;19.43;14.37;;;;;;;17.68;100.00;100538.45;1730133;82;20972;-59
2022/10/01 02:55:04;;;;;;;17.20;14.90;;;;;;;17.68;100.00;100545.03;1693337;83;21098;-59
2022/10/01 02:57:31;;;;;;;17.37;14.33;;;;;;;17.70;100.00;100537.20;1730927;82;21054;-59
2022/10/01 03:00:11;;;;;;;21.53;14.33;;;;;;;17.79;100.00;100539.56;1747147;82;21559;-60
2022/10/01 03:02:39;;;;;;;18.67;14.23;;;;;;;17.83;100.00;100545.47;1713431;82;21253;-59
2022/10/01 03:05:07;;;;;;;23.83;16.33;;;;;;;17.87;100.00;100544.00;1725990;82;21017;-60
2022/10/01 03:07:35;;;;;;;16.60;13.33;;;;;;;17.89;100.00;100548.55;1727297;82;21668;-60
2022/10/01 03:10:03;;;;;;;19.80;15.27;;;;;;;17.88;100.00;100548.75;1727018;82;21055;-59
2022/10/01 03:12:32;;;;;;;19.60;16.13;;;;;;;17.88;100.00;100546.12;1723544;82;21000;-59
2022/10/01 03:14:59;;;;;;;18.90;15.57;;;;;;;17.91;100.00;100546.99;1723481;82;21754;-69
2022/10/01 03:17:26;;;;;;;20.20;15.63;;;;;;;18.02;100.00;100545.42;1747148;82;21466;-57
2022/10/01 03:19:53;;;;;;;23.47;15.73;;;;;;;18.05;100.00;100550.27;1747190;80;20924;-59
2022/10/01 03:22:23;;;;;;;18.73;14.23;;;;;;;17.94;100.00;100549.19;1747212;81;20904;-57
2022/10/01 03:24:51;;;;;;;21.05;16.10;;;;;;;17.96;100.00;100549.78;1747505;82;21031;-58
2022/10/01 03:27:19;;;;;;;17.93;13.87;;;;;;;18.03;100.00;100550.47;1746709;80;21093;-58
2022/10/01 03:29:47;;;;;;;22.20;16.60;;;;;;;18.05;100.00;100552.37;1747172;82;21018;-57
2022/10/01 03:32:14;;;;;;;23.13;17.40;;;;;;;18.16;100.00;100548.97;1747071;82;20967;-57
2022/10/01 03:34:42;;;;;;;17.53;14.50;;;;;;;18.19;100.00;100553.80;1747133;82;21038;-58
2022/10/01 03:37:09;;;;;;;20.40;15.90;;;;;;;18.18;100.00;100556.16;1747000;82;20876;-67
2022/10/01 03:39:38;;;;;;;21.73;16.63;;;;;;;18.19;100.00;100556.44;1747207;82;21260;-58
2022/10/01 03:42:05;;;;;;;21.37;16.60;;;;;;;18.19;100.00;100558.28;1747056;82;20951;-58
2022/10/01 03:44:32;;;;;;;21.27;13.80;;;;;;;18.24;100.00;100560.52;1747227;80;20955;-58
2022/10/01 03:46:59;;;;;;;19.67;15.57;;;;;;;18.31;100.00;100565.70;1705749;82;21016;-58
2022/10/01 03:49:27;;;;;;;20.47;15.20;;;;;;;18.27;100.00;100569.83;1702601;83;20905;-64
2022/10/01 03:51:55;;;;;;;22.27;14.93;;;;;;;18.36;100.00;100571.09;1717075;83;21300;-58
2022/10/01 03:54:22;;;;;;;20.70;14.70;;;;;;;18.35;100.00;100572.66;1717117;83;21025;-58
2022/10/01 03:56:49;;;;;;;22.73;14.33;;;;;;;18.27;100.00;100578.26;1717024;83;21502;-58
2022/10/01 03:59:16;;;;;;;19.07;13.43;;;;;;;18.31;100.00;100578.90;1716772;83;21032;-59
2022/10/01 04:01:43;;;;;;;19.23;14.47;;;;;;;18.24;100.00;100576.34;1716995;83;20961;-58
2022/10/01 04:04:11;;;;;;;16.83;13.77;;;;;;;18.26;100.00;100579.27;1717201;83;21836;-59
2022/10/01 04:06:38;;;;;;;20.07;14.67;;;;;;;18.18;100.00;100575.95;1679080;83;20903;-59
2022/10/01 04:09:08;;;;;;;21.50;16.50;;;;;;;18.32;100.00;100586.30;1674254;85;20998;-58
2022/10/01 04:11:35;;;;;;;20.63;15.57;;;;;;;18.17;100.00;100582.75;1674010;85;20954;-59
2022/10/01 04:14:02;;;;;;;19.43;14.77;;;;;;;18.20;100.00;100579.16;1674135;85;21242;-58
2022/10/01 04:16:30;;;;;;;19.03;15.57;;;;;;;18.15;100.00;100587.47;1674268;85;21229;-59
2022/10/01 04:18:58;;;;;;;22.10;15.93;;;;;;;18.14;100.00;100590.59;1674239;85;20947;-60
2022/10/01 04:21:26;;;;;;;21.90;14.83;;;;;;;18.21;100.00;100587.34;1691325;84;20955;-68
2022/10/01 04:23:53;;;;;;;19.60;15.27;;;;;;;18.17;100.00;100587.51;1702164;84;21011;-58
2022/10/01 04:26:20;;;;;;;19.07;15.07;;;;;;;18.25;100.00;100594.30;1702498;84;20962;-58
2022/10/01 04:28:46;;;;;;;22.17;15.77;;;;;;;18.35;100.00;100597.72;1702609;84;21098;-59
2022/10/01 04:31:26;;;;;;;25.43;17.00;;;;;;;18.40;100.00;100601.28;1702437;84;21105;-60
2022/10/01 04:33:56;;;;;;;24.32;15.85;;;;;;;18.46;100.00;100599.06;1702624;84;21531;-58
2022/10/01 04:36:23;;;;;;;22.60;17.53;;;;;;;18.55;100.00;100596.09;1702603;84;20951;-58
2022/10/01 04:38:52;;;;;;;22.40;16.17;;;;;;;18.57;100.00;100600.13;1702737;84;21490;-58
2022/10/01 04:41:18;;;;;;;15.93;12.73;;;;;;;18.62;100.00;100598.12;1702051;84;21185;-59
2022/10/01 04:43:45;;;;;;;18.27;13.40;;;;;;;18.66;100.00;100604.03;1702543;84;21069;-59
2022/10/01 04:46:13;;;;;;;17.90;14.23;;;;;;;18.68;100.00;100606.46;1702610;84;21015;-60
2022/10/01 04:48:40;;;;;;;22.57;15.07;;;;;;;18.57;100.00;100604.09;1702507;84;21019;-58
2022/10/01 04:51:08;;;;;;;20.03;14.03;;;;;;;18.54;100.00;100616.41;1702509;84;21575;-64
2022/10/01 04:53:35;;;;;;;20.20;13.67;;;;;;;18.64;100.00;100624.59;1701990;84;21226;-58
2022/10/01 04:56:02;;;;;;;17.67;14.07;;;;;;;18.67;100.00;100626.75;1704023;82;21056;-59
2022/10/01 04:58:30;;;;;;;18.63;13.97;;;;;;;18.68;100.00;100625.75;1710346;82;21465;-62
2022/10/01 05:00:58;;;;;;;17.00;12.53;;;;;;;18.69;100.00;100635.79;1674205;85;21493;-61
2022/10/01 05:03:25;;;;;;;18.50;13.50;;;;;;;18.73;100.00;100636.17;1674105;85;21515;-62
2022/10/01 05:05:51;;;;;;;16.30;12.80;;;;;;;18.64;100.00;100636.48;1678287;84;21120;-58
2022/10/01 05:08:18;;;;;;;17.47;13.10;;;;;;;18.64;100.00;100635.16;1688184;85;20941;-58
2022/10/01 05:10:46;;;;;;;18.57;13.83;;;;;;;18.65;100.00;100628.84;1688298;85;20987;-59
2022/10/01 05:13:13;;;;;;;15.57;12.57;;;;;;;18.67;100.00;100628.08;1688435;85;21063;-59
2022/10/01 05:15:40;;;;;;;15.17;12.37;;;;;;;18.65;100.00;100625.39;1687794;85;20973;-60
2022/10/01 05:18:07;;;;;;;16.00;11.73;;;;;;;18.67;100.00;100624.63;1688118;85;21137;-58
2022/10/01 05:20:33;;;;;;;15.07;12.33;;;;;;;18.69;100.00;100622.59;1688261;83;21097;-58
2022/10/01 05:23:00;;;;;;;14.57;12.10;;;;;;;18.67;100.00;100618.03;1688293;85;21013;-58
2022/10/01 05:25:27;;;;;;;15.87;12.13;;;;;;;18.71;100.00;100620.53;1706179;82;21019;-59
2022/10/01 05:28:04;;;;;;;15.03;12.13;;;;;;;18.74;100.00;100624.05;1707534;82;21057;-58
2022/10/01 05:30:28;;;;;;;14.93;12.47;;;;;;;18.77;100.00;100626.76;1704733;82;21400;-59
2022/10/01 05:32:59;;;;;;;14.97;11.73;;;;;;;18.86;100.00;100625.38;1716725;82;20964;-61
2022/10/01 05:35:26;;;;;;;13.93;11.73;;;;;;;18.96;100.00;100628.27;1716821;83;21051;-70
2022/10/01 05:37:55;;;;;;;16.73;12.33;;;;;;;18.98;100.00;100630.66;1716761;83;20996;-59
2022/10/01 05:40:24;;;;;;;14.67;11.90;;;;;;;18.97;100.00;100631.19;1717065;82;20977;-61
2022/10/01 05:42:50;;;;;;;14.80;11.80;;;;;;;18.98;100.00;100624.89;1717177;83;21772;-58
2022/10/01 05:45:19;;;;;;;16.00;12.77;;;;;;;19.04;100.00;100619.20;1716869;82;21083;-58
2022/10/01 05:47:46;;;;;;;14.90;11.53;;;;;;;19.16;100.00;100625.27;1716385;83;21514;-58
2022/10/01 05:50:13;;;;;;;13.13;11.73;;;;;;;19.10;100.00;100627.02;1717050;83;21110;-58
2022/10/01 05:52:51;;;;;;;16.40;13.20;;;;;;;19.16;100.00;100627.91;1717083;83;21035;-58
2022/10/01 05:55:19;;;;;;;12.93;11.33;;;;;;;19.20;100.00;100629.06;1716434;83;21246;-70
2022/10/01 05:57:56;;;;;;;15.10;11.80;;;;;;;19.32;100.00;100627.73;1716771;83;21047;-59
2022/10/01 06:00:23;;;;;;;15.83;11.73;;;;;;;19.38;100.00;100626.81;1716472;83;21024;-59
2022/10/01 06:02:51;;;;;;;14.00;11.73;;;;;;;19.48;100.00;100623.07;1717004;82;21053;-58
2022/10/01 06:05:19;;;;;;;15.33;12.50;;;;;;;19.54;100.00;100627.41;1716525;82;21071;-71
2022/10/01 06:07:47;;;;;;;13.30;11.77;;;;;;;19.57;100.00;100624.83;1717040;83;21158;-58
2022/10/01 06:10:14;;;;;;;13.53;11.53;;;;;;;19.61;100.00;100628.09;1716941;82;21499;-59
2022/10/01 06:12:42;;;;;;;14.80;10.87;;;;;;;19.69;100.00;100622.98;1717117;83;21008;-58
2022/10/01 06:15:09;;;;;;;13.33;11.93;;;;;;;19.75;100.00;100622.58;1716508;82;20954;-70
2022/10/01 06:17:43;;;;;;;14.50;12.37;;;;;;;19.89;100.00;100617.31;1716970;83;21004;-58
2022/10/01 06:20:06;;;;;;;13.20;11.17;;;;;;;20.03;100.00;100614.64;1716141;82;21271;-58
2022/10/01 06:22:33;;;;;;;13.13;11.77;;;;;;;20.23;100.00;100608.11;1717041;83;21054;-59
2022/10/01 06:25:00;;;;;;;12.50;11.20;;;;;;;20.51;100.00;100613.92;1717609;83;20972;-59
2022/10/01 06:27:26;;;;;;;13.60;12.20;;;;;;;20.86;100.00;100613.67;1716616;83;20953;-62
2022/10/01 06:29:53;;;;;;;15.00;12.93;;;;;;;20.97;100.00;100614.64;1717063;83;21008;-58
2022/10/01 06:32:20;;;;;;;14.10;12.60;;;;;;;21.19;100.00;100606.73;1717038;82;22037;-58
2022/10/01 06:34:47;;;;;;;13.80;12.50;;;;;;;21.25;100.00;100611.03;1716932;82;21082;-58
2022/10/01 06:37:14;;;;;;;13.57;12.17;;;;;;;21.16;100.00;100612.52;1717403;83;21534;-58
2022/10/01 06:39:43;;;;;;;13.50;12.10;;;;;;;21.07;100.00;100607.64;1716664;83;21015;-58
2022/10/01 06:42:11;;;;;;;13.33;11.77;;;;;;;20.98;100.00;100614.91;1717212;83;20989;-58
2022/10/01 06:44:41;;;;;;;15.43;13.33;;;;;;;20.97;100.00;100614.11;1717134;83;21152;-59
2022/10/01 06:47:08;;;;;;;13.70;12.40;;;;;;;21.00;100.00;100618.93;1717158;83;20961;-59
2022/10/01 06:49:34;;;;;;;13.97;12.53;;;;;;;21.07;100.00;100614.27;1716743;82;21570;-58
2022/10/01 06:54:46;;;;;;;15.47;13.80;;;;;;;21.22;100.00;100608.90;1706805;82;20957;-64
2022/10/01 06:57:14;;;;;;;14.20;12.80;;;;;;;21.24;100.00;100614.22;1716395;83;22448;-74
2022/10/01 06:59:41;;;;;;;14.83;13.23;;;;;;;21.21;100.00;100611.25;1723350;82;21703;-59
2022/10/01 07:02:21;;;;;;;14.27;12.87;;;;;;;21.20;100.00;100603.83;1747371;80;21506;-59
2022/10/01 07:04:48;;;;;;;13.13;11.90;;;;;;;21.32;100.00;100616.97;1711653;82;20984;-59
2022/10/01 07:07:15;;;;;;;13.90;12.50;;;;;;;21.39;100.00;100611.00;1703910;82;20992;-70
2022/10/01 07:09:42;;;;;;;15.07;12.47;;;;;;;21.48;100.00;100604.23;1717089;82;21762;-60
2022/10/01 07:12:09;;;;;;;13.80;12.40;;;;;;;21.66;100.00;100600.45;1704601;83;21522;-60
2022/10/01 07:14:36;;;;;;;14.63;12.90;;;;;;;21.80;100.00;100601.67;1717332;82;21022;-60
2022/10/01 07:17:02;;;;;;;13.67;12.43;;;;;;;21.86;100.00;100599.89;1716916;83;20961;-61
2022/10/01 07:19:30;;;;;;;14.60;11.13;;;;;;;21.97;100.00;100601.60;1716405;82;21013;-60
2022/10/01 07:21:58;;;;;;;11.80;10.70;;;;;;;21.91;100.00;100603.92;1716738;82;21975;-60
2022/10/01 07:24:25;;;;;;;12.30;11.00;;;;;;;21.93;100.00;100606.31;1717101;83;21056;-60
2022/10/01 07:26:54;;;;;;;12.40;11.10;;;;;;;22.02;100.00;100603.50;1716922;82;21036;-61
2022/10/01 07:29:22;;;;;;;12.87;11.57;;;;;;;22.02;100.00;100602.97;1716463;83;20921;-62
2022/10/01 07:31:58;;;;;;;13.07;11.67;;;;;;;22.03;100.00;100603.23;1717208;83;21106;-63
2022/10/01 07:34:30;;;;;;;13.53;12.13;;;;;;;22.06;100.00;100597.44;1717022;82;21539;-61
2022/10/01 07:36:57;;;;;;;12.10;10.90;;;;;;;22.03;100.00;100600.58;1716829;83;21519;-61
2022/10/01 07:39:26;;;;;;;12.87;11.43;;;;;;;22.01;100.00;100602.70;1716366;83;20957;-63
2022/10/01 07:41:54;;;;;;;12.17;11.00;;;;;;;22.10;100.00;100603.05;1716703;82;21461;-62
2022/10/01 07:44:21;;;;;;;12.83;10.83;;;;;;;22.22;100.00;100589.64;1725472;82;21091;-62
2022/10/01 07:46:48;;;;;;;11.40;10.30;;;;;;;22.56;100.00;100587.53;1717033;83;21262;-61
2022/10/01 07:49:15;;;;;;;10.77;9.57;;;;;;;23.10;100.00;100589.23;1716855;83;20975;-67
2022/10/01 07:51:43;;;;;;;10.30;9.30;;;;;;;23.54;100.00;100585.17;1716582;83;20945;-61
2022/10/01 07:54:11;;;;;;;11.13;10.10;;;;;;;23.89;100.00;100583.70;1717056;82;20984;-61
2022/10/01 07:56:38;;;;;;;9.97;9.00;;;;;;;24.16;100.00;100586.66;1717119;83;20902;-63
2022/10/01 07:59:07;;;;;;;11.00;9.53;;;;;;;24.37;100.00;100595.48;1717078;83;22257;-62
2022/10/01 08:01:36;;;;;;;11.57;10.47;;;;;;;24.58;100.00;100593.63;1716472;82;20953;-62
2022/10/01 08:05:16;;;;;;;10.10;8.65;;;;;;;24.63;100.00;100582.98;1716982;82;22296;-62
2022/10/01 08:06:33;;;;;;;10.97;9.97;;;;;;;24.61;100.00;100577.10;1712658;82;21543;-62
2022/10/01 08:09:01;;;;;;;10.90;9.90;;;;;;;24.64;100.00;100573.38;1717080;83;20909;-62
2022/10/01 08:11:28;;;;;;;11.83;9.33;;;;;;;24.81;100.00;100578.39;1725399;82;22191;-76
2022/10/01 08:13:56;;;;;;;10.68;9.58;;;;;;;24.84;100.00;100580.52;1702844;83;21056;-61
2022/10/01 08:16:27;;;;;;;9.85;8.95;;;;;;;24.86;100.00;100581.61;1717136;82;21601;-62
2022/10/01 08:18:54;;;;;;;10.50;9.43;;;;;;;24.96;100.00;100577.56;1716887;82;21506;-62
2022/10/01 08:21:21;;;;;;;10.48;9.48;;;;;;;24.97;100.00;100580.52;1716414;83;21576;-66
2022/10/01 08:23:48;;;;;;;11.10;10.10;;;;;;;25.05;100.00;100569.83;1717355;83;21632;-63
2022/10/01 08:26:16;;;;;;;11.18;10.08;;;;;;;24.97;100.00;100574.64;1722735;82;21012;-62
2022/10/01 08:28:43;;;;;;;9.93;8.95;;;;;;;24.95;100.00;100579.44;1715954;82;21518;-63
2022/10/01 08:31:11;;;;;;;10.70;9.70;;;;;;;24.93;100.00;100576.25;1716519;83;20905;-65
2022/10/01 08:33:39;;;;;;;10.98;9.88;;;;;;;24.98;100.00;100570.90;1717029;82;21318;-63
2022/10/01 08:36:07;;;;;;;11.50;10.43;;;;;;;25.08;100.00;100571.92;1716881;83;21226;-66
2022/10/01 08:38:35;;;;;;;10.50;9.60;;;;;;;25.02;100.00;100571.69;1716767;83;20913;-64
2022/10/01 08:41:10;;;;;;;10.85;9.85;;;;;;;25.03;100.00;100577.28;1717031;82;21013;-75
2022/10/01 08:43:38;;;;;;;10.78;9.73;;;;;;;25.07;100.00;100579.13;1716049;83;21497;-63
2022/10/01 08:46:17;;;;;;;10.60;9.70;;;;;;;25.05;100.00;100571.95;1716962;82;21008;-63
2022/10/01 08:49:23;;;;;;;10.23;9.15;;;;;;;25.09;100.00;100568.20;1744990;82;21528;-61
2022/10/01 08:51:58;;;;;;;10.32;9.30;;;;;;;25.14;100.00;100570.88;1747201;82;20837;-62
2022/10/01 08:54:47;;;;;;;9.70;8.80;;;;;;;25.29;100.00;100572.16;1747220;81;21003;-62
2022/10/01 08:57:17;;;;;;;11.25;9.73;;;;;;;25.49;100.00;100565.92;1747272;81;21018;-65
2022/10/01 08:59:50;;;;;;;10.30;8.60;;;;;;;25.60;100.00;100561.33;1747277;82;21098;-64
2022/10/01 09:02:29;;;;;;;10.45;9.48;;;;;;;25.72;100.00;100563.13;1745563;82;21141;-76
2022/10/01 09:05:04;;;;;;;14.13;10.63;;;;;;;25.91;100.00;100562.78;1747206;82;21454;-64
2022/10/01 09:07:52;;;;;;;10.65;9.55;;;;;;;25.99;100.00;100564.58;1747267;82;21023;-61
2022/10/01 09:10:34;;;;;;;11.75;10.63;;;;;;;26.01;100.00;100559.23;1747693;81;21050;-63
2022/10/01 09:13:20;;;;;;;11.25;10.23;;;;;;;26.07;100.00;100557.33;1747804;82;20991;-63
2022/10/01 09:16:01;;;;;;;11.63;10.45;;;;;;;26.24;100.00;100556.38;1747680;82;21201;-63
2022/10/01 09:19:19;;;;;;;12.03;10.82;;;;;;;26.77;100.00;100551.09;1747660;82;20963;-63
2022/10/01 09:22:02;;;;;;;10.90;9.68;;;;;;;27.38;100.00;100549.05;1747798;82;20963;-63
2022/10/01 09:24:44;;;;;;;11.45;10.45;;;;;;;27.99;100.00;100547.95;1746838;81;21082;-63
2022/10/01 09:27:18;;;;;;;9.78;8.73;;;;;;;28.85;100.00;100542.42;1747767;82;21478;-66
2022/10/01 09:29:51;;;;;;;8.75;7.85;;;;;;;28.85;100.00;100542.42;1745214;81;21060;-80
2022/10/01 09:32:26;;;;;;;9.60;8.70;;;;;;;29.45;100.00;100528.62;1747727;82;20997;-62
2022/10/01 09:34:53;;;;;;;9.08;8.28;;;;;;;30.05;100.00;100531.78;1747776;81;20900;-63
2022/10/01 09:37:29;;;;;;;9.50;8.60;;;;;;;30.59;100.00;100529.08;1747623;82;20951;-63
2022/10/01 09:40:21;;;;;;;8.43;7.62;;;;;;;31.00;100.00;100522.03;1746535;81;20884;-66
2022/10/01 09:42:48;;;;;;;;;;;;;;;31.11;100.00;100523.09;1750347;82;21343;-63
2022/10/01 09:45:15;;;;;;;9.58;8.20;;;;;;;31.30;100.00;100520.11;1747397;82;20095;-78
2022/10/01 09:47:45;;;;;;;9.35;7.60;;;;;;;31.57;100.00;100512.30;1721609;81;21154;-64
2022/10/01 09:50:16;;;;;;;9.28;6.95;;;;;;;31.86;100.00;100509.77;1716219;82;21004;-63
2022/10/01 09:52:43;;;;;;;;;;;;;;;32.17;100.00;100514.92;1750383;82;21509;-63
2022/10/01 09:55:19;;;;;;;6.45;5.33;;;;;;;32.15;100.00;100515.78;1747342;82;21135;-72
2022/10/01 09:57:59;;;;;;;7.47;5.62;;;;;;;32.07;100.00;100509.07;1747683;81;20966;-64
2022/10/01 10:00:26;;;;;;;6.03;5.37;;;;;;;32.08;96.25;100502.55;1747948;82;20927;-62
2022/10/01 10:02:54;;;;;;;5.50;4.90;;;;;;;32.10;95.10;100503.83;1747822;82;21055;-62
2022/10/01 10:05:28;;;;;;;8.18;5.60;;;;;;;32.06;91.15;100500.19;1739681;81;21017;-62
2022/10/01 10:08:01;;;;;;;8.70;5.58;;;;;;;31.93;95.10;100490.38;1722752;82;21269;-60
2022/10/01 10:10:34;;;;;;;7.67;6.22;;;;;;;31.82;93.97;100496.62;1722554;83;20901;-61
2022/10/01 10:13:22;;;;;;;10.15;6.78;;;;;;;31.71;90.57;100489.45;1721975;81;21613;-62
2022/10/01 10:15:51;;;;;;;10.32;5.78;;;;;;;31.60;94.42;100487.41;1720517;83;21029;-61
2022/10/01 10:18:26;;;;;;;6.47;5.12;;;;;;;31.42;93.10;100482.58;1721655;83;21565;-63
2022/10/01 10:20:53;;;;;;;5.95;4.78;;;;;;;31.30;89.98;100475.66;1721494;83;21437;-61
2022/10/01 10:23:25;;;;;;;6.72;5.10;;;;;;;31.26;95.25;100473.59;1721886;82;21103;-61
2022/10/01 10:26:01;;;;;;;6.40;5.00;;;;;;;31.33;90.06;100465.61;1722839;83;23142;-61
2022/10/01 10:28:41;;;;;;;4.90;4.40;;;;;;;31.44;91.26;100468.22;1722386;83;20921;-61
2022/10/01 10:31:21;;;;;;;5.62;4.90;;;;;;;31.58;79.27;100458.63;1722710;83;21048;-61
2022/10/01 10:33:56;;;;;;;6.45;5.33;;;;;;;31.54;77.45;100455.78;1722496;83;21238;-64
2022/10/01 10:36:29;;;;;;;7.92;5.95;;;;;;;31.35;78.37;100452.62;1721421;83;21512;-61
2022/10/01 10:38:56;;;;;;;9.38;7.05;;;;;;;31.20;88.88;100449.27;1722799;83;21490;-60
2022/10/01 10:41:25;;;;;;;10.30;7.47;;;;;;;31.21;90.16;100434.69;1722714;83;20993;-62
2022/10/01 10:44:03;;;;;;;9.08;8.18;;;;;;;31.26;89.72;100435.89;1722608;83;20918;-61
2022/10/01 10:46:35;;;;;;;9.98;8.85;;;;;;;31.37;95.68;100440.44;1722677;83;21114;-59
2022/10/01 10:49:10;;;;;;;11.60;9.33;;;;;;;31.45;96.73;100436.94;1722422;83;20977;-62
2022/10/01 10:51:55;;;;;;;12.25;9.18;;;;;;;31.54;95.18;100435.57;1724831;81;21138;-61
2022/10/01 10:54:23;;;;;;;11.12;9.10;;;;;;;31.59;94.77;100431.91;1696676;82;20978;-61
2022/10/01 10:56:53;;;;;;;10.98;9.15;;;;;;;31.45;87.30;100426.16;1692653;84;20988;-73
2022/10/01 10:59:21;;;;;;;11.60;7.33;;;;;;;31.31;91.77;100422.84;1693197;84;21258;-60
2022/10/01 11:01:51;;;;;;;7.72;6.92;;;;;;;31.12;89.59;100419.09;1693384;84;21015;-60
2022/10/01 11:04:37;;;;;;;7.45;6.05;;;;;;;30.87;92.81;100415.83;1692799;84;21024;-61
2022/10/01 11:07:04;;;;;;;7.08;6.03;;;;;;;30.89;90.29;100413.63;1692014;83;21028;-60
2022/10/01 11:10:23;;;;;;;7.62;6.15;;;;;;;30.65;90.51;100411.33;1675085;85;21466;-60
2022/10/01 11:13:22;;;;;;;8.25;6.47;;;;;;;30.61;86.59;100411.19;1674470;85;21374;-60
2022/10/01 11:16:11;;;;;;;8.80;6.03;;;;;;;30.52;93.69;100404.42;1660319;85;20974;-70
2022/10/01 11:19:08;;;;;;;8.03;5.78;;;;;;;30.57;93.04;100398.09;1674242;85;21037;-59
2022/10/01 11:22:14;;;;;;;7.85;6.05;;;;;;;30.60;93.36;100403.41;1674178;85;21858;-60
2022/10/01 11:25:23;;;;;;;7.65;6.45;;;;;;;30.54;94.60;100406.82;1674041;85;21112;-61
2022/10/01 11:28:37;;;;;;;9.73;6.85;;;;;;;30.32;93.23;100407.70;1674033;85;21286;-72
2022/10/01 11:31:14;;;;;;;6.60;5.08;;;;;;;30.15;97.45;100403.01;1674559;85;20962;-59